createdAt,value
2023-05-03T00:01:32.116Z,101504.84
2023-05-03T00:06:39.386Z,101504.06
2023-05-03T00:11:47.958Z,101515.34
2023-05-03T00:16:54.638Z,101504.91
2023-05-03T00:22:01.760Z,101510.19
2023-05-03T00:27:10.222Z,101517.28
2023-05-03T00:32:17.134Z,101518.22
2023-05-03T00:37:24.552Z,101515.63
2023-05-03T00:42:32.657Z,101526.97
2023-05-03T00:47:40.262Z,101538.25
2023-05-03T00:52:47.339Z,101535.72
2023-05-03T00:57:55.798Z,101538.34
2023-05-03T01:03:02.465Z,101542.69
2023-05-03T01:08:17.241Z,101537.50
2023-05-03T01:13:33.748Z,101540.97
2023-05-03T01:18:44.496Z,101537.50
2023-05-03T01:23:59.162Z,101545.31
2023-05-03T01:29:08.471Z,101540.09
2023-05-03T01:34:30.570Z,101541.81
2023-05-03T01:39:46.117Z,101548.78
2023-05-03T01:44:56.730Z,101572.19
2023-05-03T01:50:03.717Z,101544.44
2023-05-03T01:55:11.620Z,101559.16
2023-05-03T02:00:20.262Z,101567.84
2023-05-03T02:05:27.508Z,101555.69
2023-05-03T02:10:35.015Z,101553.09
2023-05-03T02:15:43.255Z,101558.31
2023-05-03T02:20:50.049Z,101555.69
2023-05-03T02:25:56.892Z,101548.75
2023-05-03T02:31:07.403Z,101552.22
2023-05-03T02:36:14.782Z,101561.78
2023-05-03T02:41:24.045Z,101559.16
2023-05-03T02:46:38.765Z,101565.22
2023-05-03T02:51:56.331Z,101572.16
2023-05-03T02:57:08.014Z,101579.97
2023-05-03T03:02:16.352Z,101582.59
2023-05-03T03:07:23.174Z,101583.47
2023-05-03T03:12:33.974Z,101589.50
2023-05-03T03:17:42.188Z,101596.47
2023-05-03T03:22:50.620Z,101604.28
2023-05-03T03:27:57.160Z,101611.22
2023-05-03T03:33:07.096Z,101616.41
2023-05-03T03:38:21.824Z,101615.53
2023-05-03T03:43:36.596Z,101614.69
2023-05-03T03:48:48.020Z,101622.47
2023-05-03T03:53:54.888Z,101627.69
2023-05-03T03:59:04.308Z,101627.69
2023-05-03T04:04:12.448Z,101638.94
2023-05-03T04:09:19.445Z,101648.50
2023-05-03T04:14:26.143Z,101647.63
2023-05-03T04:19:34.736Z,101645.06
2023-05-03T04:24:46.264Z,101654.53
2023-05-03T04:29:53.103Z,101656.22
2023-05-03T04:35:02.541Z,101664.00
2023-05-03T04:40:12.617Z,101667.59
2023-05-03T04:45:23.790Z,101676.28
2023-05-03T04:50:32.004Z,101674.53
2023-05-03T04:55:38.851Z,101691.00
2023-05-03T05:00:46.825Z,101690.09
2023-05-03T05:06:02.982Z,101691.84
2023-05-03T05:11:13.292Z,101699.63
2023-05-03T05:16:20.016Z,101688.31
2023-05-03T05:21:32.990Z,101690.97
2023-05-03T05:26:40.304Z,101689.19
2023-05-03T05:31:46.873Z,101698.72
2023-05-03T05:36:55.189Z,101703.06
2023-05-03T05:42:04.529Z,101705.63
2023-05-03T05:47:12.517Z,101710.88
2023-05-03T05:52:22.397Z,101716.94
2023-05-03T05:57:29.647Z,101716.91
2023-05-03T06:02:36.862Z,101718.53
2023-05-03T06:07:45.735Z,101727.22
2023-05-03T06:12:52.376Z,101737.75
2023-05-03T06:18:03.197Z,101738.59
2023-05-03T06:23:11.456Z,101744.63
2023-05-03T06:28:18.002Z,101742.84
2023-05-03T06:33:24.839Z,101739.34
2023-05-03T06:38:33.835Z,101744.50
2023-05-03T06:43:40.380Z,101754.03
2023-05-03T06:48:47.047Z,101753.97
2023-05-03T06:53:55.044Z,101755.66
2023-05-03T06:59:01.852Z,101760.06
2023-05-03T07:04:08.509Z,101767.81
2023-05-03T07:09:16.672Z,101766.09
2023-05-03T07:14:23.351Z,101773.09
2023-05-03T07:19:30.468Z,101775.75
2023-05-03T07:24:38.384Z,101760.06
2023-05-03T07:29:45.444Z,101770.44
2023-05-03T07:34:51.959Z,101769.50
2023-05-03T07:40:00.662Z,101766.00
2023-05-03T07:45:11.572Z,101772.88
2023-05-03T07:50:18.982Z,101771.97
2023-05-03T07:55:27.037Z,101777.97
2023-05-03T08:00:33.823Z,101777.19
2023-05-03T08:05:40.577Z,101765.84
2023-05-03T08:10:48.782Z,101765.69
2023-05-03T08:15:55.550Z,101777.91
2023-05-03T08:21:03.826Z,101774.47
2023-05-03T08:26:14.453Z,101776.94
2023-05-03T08:31:21.108Z,101781.25
2023-05-03T08:36:28.030Z,101781.97
2023-05-03T08:41:36.597Z,101782.78
2023-05-03T08:46:45.893Z,101781.06
2023-05-03T08:51:53.587Z,101785.28
2023-05-03T08:57:01.874Z,101796.63
2023-05-03T09:02:11.681Z,101791.50
2023-05-03T09:07:20.339Z,101791.28
2023-05-03T09:12:42.313Z,101799.06
2023-05-03T09:18:08.330Z,101793.16
2023-05-03T09:23:15.442Z,101791.13
2023-05-03T09:28:23.938Z,101790.88
2023-05-03T09:33:31.980Z,101792.66
2023-05-03T09:38:38.844Z,101788.31
2023-05-03T09:43:57.156Z,101797.13
2023-05-03T09:49:04.981Z,101792.78
2023-05-03T09:54:13.412Z,101791.81
2023-05-03T09:59:22.111Z,101791.69
2023-05-03T10:04:30.990Z,101792.44
2023-05-03T10:09:41.829Z,101793.88
2023-05-03T10:14:55.286Z,101794.72
2023-05-03T10:20:14.814Z,101792.25
2023-05-03T10:25:21.845Z,101797.34
2023-05-03T10:30:35.079Z,101791.31
2023-05-03T10:35:43.713Z,101791.53
2023-05-03T10:40:50.833Z,101777.06
2023-05-03T10:46:00.858Z,101784.41
2023-05-03T10:51:37.519Z,101788.94
2023-05-03T10:56:56.408Z,101787.03
2023-05-03T11:02:04.541Z,101777.16
2023-05-03T11:07:11.334Z,101777.81
2023-05-03T11:12:17.986Z,101792.84
2023-05-03T11:17:26.751Z,101782.16
2023-05-03T11:22:34.249Z,101776.56
2023-05-03T11:27:44.496Z,101786.47
2023-05-03T11:32:54.488Z,101784.41
2023-05-03T11:38:00.975Z,101790.91
2023-05-03T11:43:08.383Z,101772.50
2023-05-03T11:48:16.772Z,101785.97
2023-05-03T11:53:25.205Z,101789.69
2023-05-03T11:58:32.538Z,101782.81
2023-05-03T12:03:40.940Z,101787.47
2023-05-03T12:08:47.653Z,101790.09
2023-05-03T12:14:02.817Z,101782.66
2023-05-03T12:19:11.456Z,101774.44
2023-05-03T12:24:20.672Z,101782.09
2023-05-03T12:29:29.497Z,101768.66
2023-05-03T12:34:40.908Z,101763.66
2023-05-03T12:39:58.537Z,101759.75
2023-05-03T12:45:15.654Z,101760.34
2023-05-03T12:50:24.993Z,101764.44
2023-05-03T12:55:35.332Z,101751.56
2023-05-03T13:01:06.994Z,101752.19
2023-05-03T13:06:14.639Z,101754.88
2023-05-03T13:11:22.081Z,101755.66
2023-05-03T13:16:30.299Z,101750.66
2023-05-03T13:21:38.261Z,101745.72
2023-05-03T13:26:44.829Z,101738.38
2023-05-03T13:31:51.562Z,101730.44
2023-05-03T13:36:59.812Z,101736.06
2023-05-03T13:42:06.828Z,101734.03
2023-05-03T13:47:13.727Z,101727.97
2023-05-03T13:52:21.717Z,101724.25
2023-05-03T13:57:28.615Z,101716.81
2023-05-03T14:02:35.330Z,101721.00
2023-05-03T14:07:43.790Z,101714.28
2023-05-03T14:12:50.696Z,101709.16
2023-05-03T14:17:59.928Z,101713.25
2023-05-03T14:23:10.318Z,101715.13
2023-05-03T14:28:17.184Z,101726.34
2023-05-03T14:33:23.725Z,101731.31
2023-05-03T14:38:32.581Z,101727.13
2023-05-03T14:43:40.057Z,101723.22
2023-05-03T14:48:46.906Z,101722.47
2023-05-03T14:53:55.587Z,101719.88
2023-05-03T14:59:04.855Z,101724.16
2023-05-03T15:04:13.966Z,101727.78
2023-05-03T15:09:23.282Z,101729.63
2023-05-03T15:14:30.367Z,101729.69
2023-05-03T15:19:38.078Z,101730.59
2023-05-03T15:24:47.006Z,101728.28
2023-05-03T15:29:53.501Z,101732.09
2023-05-03T15:35:00.336Z,101742.63
2023-05-03T15:40:11.758Z,101734.38
2023-05-03T15:45:19.423Z,101739.19
2023-05-03T15:50:26.620Z,101737.22
2023-05-03T15:55:34.821Z,101734.72
2023-05-03T16:00:42.044Z,101746.44
2023-05-03T16:05:48.915Z,101739.59
2023-05-03T16:10:58.721Z,101730.78
2023-05-03T16:16:06.187Z,101740.38
2023-05-03T16:21:14.894Z,101739.47
2023-05-03T16:26:23.231Z,101742.25
2023-05-03T16:31:31.849Z,101733.63
2023-05-03T16:36:43.257Z,101744.13
2023-05-03T16:41:52.816Z,101734.72
2023-05-03T16:47:03.218Z,101745.31
2023-05-03T16:52:11.804Z,101746.31
2023-05-03T16:57:20.593Z,101738.69
2023-05-03T17:02:28.850Z,101748.31
2023-05-03T17:07:38.393Z,101750.13
2023-05-03T17:12:49.927Z,101756.34
2023-05-03T17:17:56.918Z,101751.34
2023-05-03T17:23:03.536Z,101746.34
2023-05-03T17:28:11.589Z,101751.78
2023-05-03T17:33:18.279Z,101753.66
2023-05-03T17:38:25.606Z,101761.75
2023-05-03T17:43:34.255Z,101766.38
2023-05-03T17:48:43.877Z,101771.78
2023-05-03T17:53:50.970Z,101774.56
2023-05-03T17:58:59.553Z,101776.47
2023-05-03T18:04:08.697Z,101778.50
2023-05-03T18:09:15.841Z,101788.22
2023-05-03T18:14:24.411Z,101789.16
2023-05-03T18:19:31.741Z,101789.47
2023-05-03T18:24:39.123Z,101793.97
2023-05-03T18:29:49.833Z,101797.50
2023-05-03T18:34:58.533Z,101795.00
2023-05-03T18:40:06.688Z,101802.03
2023-05-03T18:45:18.096Z,101800.34
2023-05-03T18:50:26.444Z,101803.84
2023-05-03T18:55:34.579Z,101809.06
2023-05-03T19:00:46.960Z,101803.91
2023-05-03T19:05:55.271Z,101805.66
2023-05-03T19:11:11.033Z,101810.84
2023-05-03T19:16:20.541Z,101812.59
2023-05-03T19:21:29.679Z,101822.13
2023-05-03T19:26:37.532Z,101815.16
2023-05-03T19:31:48.664Z,101826.38
2023-05-03T19:36:55.900Z,101823.72
2023-05-03T19:42:04.877Z,101828.88
2023-05-03T19:47:15.081Z,101835.72
2023-05-03T19:52:22.848Z,101834.78
2023-05-03T19:57:30.474Z,101839.03
2023-05-03T20:02:40.408Z,101832.88
2023-05-03T20:07:49.711Z,101831.91
2023-05-03T20:12:57.122Z,101834.31
2023-05-03T20:18:06.304Z,101834.97
2023-05-03T20:23:13.965Z,101827.88
2023-05-03T20:28:22.051Z,101833.94
2023-05-03T20:33:31.212Z,101834.69
2023-05-03T20:38:39.170Z,101834.50
2023-05-03T20:43:45.992Z,101842.16
2023-05-03T20:48:53.983Z,101831.63
2023-05-03T20:54:00.844Z,101833.41
2023-05-03T20:59:07.736Z,101834.09
2023-05-03T21:04:18.033Z,101830.59
2023-05-03T21:09:25.090Z,101833.03
2023-05-03T21:14:31.969Z,101833.59
2023-05-03T21:19:41.094Z,101835.28
2023-05-03T21:24:48.381Z,101828.91
2023-05-03T21:29:56.682Z,101830.63
2023-05-03T21:35:05.163Z,101826.16
2023-05-03T21:40:13.931Z,101828.69
2023-05-03T21:45:20.813Z,101829.50
2023-05-03T21:50:28.891Z,101825.13
2023-05-03T21:55:36.537Z,101823.25
2023-05-03T22:00:44.673Z,101831.69
2023-05-03T22:05:53.057Z,101834.91
2023-05-03T22:11:00.235Z,101832.91
2023-05-03T22:16:08.758Z,101836.97
2023-05-03T22:21:17.013Z,101831.69
2023-05-03T22:26:24.676Z,101831.59
2023-05-03T22:31:31.904Z,101828.88
2023-05-03T22:36:43.015Z,101828.59
2023-05-03T22:41:50.039Z,101836.22
2023-05-03T22:46:58.298Z,101836.88
2023-05-03T22:52:09.449Z,101834.13
2023-05-03T22:57:16.172Z,101833.28
2023-05-03T23:02:23.139Z,101833.25
2023-05-03T23:07:32.321Z,101825.13
2023-05-03T23:12:39.453Z,101829.47
2023-05-03T23:17:46.941Z,101827.75
2023-05-03T23:22:55.119Z,101824.81
2023-05-03T23:28:05.959Z,101827.47
2023-05-03T23:33:13.189Z,101827.47
2023-05-03T23:38:21.897Z,101817.84
2023-05-03T23:43:28.522Z,101820.25
2023-05-03T23:48:35.307Z,101818.34
2023-05-03T23:53:43.591Z,101824.19
2023-05-03T23:58:50.000Z,101817.16
